createdAt,value
2018-04-23T00:02:22.427Z,62.73
2018-04-23T00:04:49.929Z,63.26
2018-04-23T00:07:17.465Z,63.58
2018-04-23T00:09:45.127Z,63.43
2018-04-23T00:12:12.775Z,63.22
2018-04-23T00:14:40.394Z,63.30
2018-04-23T00:17:08.389Z,63.24
2018-04-23T00:19:36.024Z,63.58
2018-04-23T00:22:03.652Z,63.37
2018-04-23T00:24:32.139Z,64.51
2018-04-23T00:26:59.764Z,64.93
2018-04-23T00:29:28.945Z,64.92
2018-04-23T00:31:56.563Z,64.83
2018-04-23T00:34:24.092Z,65.03
2018-04-23T00:36:52.100Z,65.24
2018-04-23T00:39:19.645Z,65.22
2018-04-23T00:41:47.169Z,65.50
2018-04-23T00:44:14.744Z,65.16
2018-04-23T00:46:42.465Z,64.91
2018-04-23T00:49:10.004Z,65.32
2018-04-23T00:51:37.553Z,65.62
2018-04-23T00:54:05.065Z,65.86
2018-04-23T00:56:32.637Z,65.78
2018-04-23T00:59:00.212Z,66.21
2018-04-23T01:01:27.750Z,66.24
2018-04-23T01:03:55.316Z,66.42
2018-04-23T01:06:22.845Z,66.54
2018-04-23T01:08:50.458Z,66.17
2018-04-23T01:11:18.053Z,66.06
2018-04-23T01:13:45.760Z,65.95
2018-04-23T01:16:13.310Z,65.84
2018-04-23T01:18:40.952Z,65.99
2018-04-23T01:21:08.538Z,66.17
2018-04-23T01:23:36.066Z,66.64
2018-04-23T01:26:03.640Z,66.74
2018-04-23T01:28:31.163Z,66.94
2018-04-23T01:30:58.711Z,67.32
2018-04-23T01:33:26.227Z,67.30
2018-04-23T01:35:53.748Z,66.97
2018-04-23T01:38:21.652Z,67.34
2018-04-23T01:40:49.170Z,67.54
2018-04-23T01:43:17.955Z,67.43
2018-04-23T01:45:45.517Z,67.38
2018-04-23T01:48:18.128Z,67.46
2018-04-23T01:50:50.320Z,67.94
2018-04-23T01:53:23.064Z,67.62
2018-04-23T01:55:55.320Z,67.38
2018-04-23T01:58:29.972Z,67.83
2018-04-23T02:01:02.394Z,68.15
2018-04-23T02:03:35.149Z,68.81
2018-04-23T02:06:07.607Z,68.73
2018-04-23T02:08:39.912Z,68.72
2018-04-23T02:11:11.612Z,68.65
2018-04-23T02:13:44.175Z,68.53
2018-04-23T02:16:17.262Z,68.37
2018-04-23T02:18:49.404Z,68.76
2018-04-23T02:21:22.293Z,68.76
2018-04-23T02:23:55.775Z,68.74
2018-04-23T02:26:29.009Z,68.48
2018-04-23T02:29:03.855Z,68.55
2018-04-23T02:31:38.238Z,68.15
2018-04-23T02:34:11.032Z,68.46
2018-04-23T02:36:43.373Z,68.94
2018-04-23T02:39:16.422Z,68.95
2018-04-23T02:41:48.642Z,68.89
2018-04-23T02:44:21.109Z,69.02
2018-04-23T02:46:53.916Z,69.03
2018-04-23T02:49:28.725Z,68.97
2018-04-23T02:52:04.382Z,68.75
2018-04-23T02:54:39.699Z,68.20
2018-04-23T02:57:11.967Z,67.98
2018-04-23T02:59:44.639Z,68.27
2018-04-23T03:02:17.425Z,68.87
2018-04-23T03:04:47.028Z,68.92
2018-04-23T03:07:14.886Z,68.83
2018-04-23T03:09:42.889Z,68.68
2018-04-23T03:12:10.797Z,68.40
2018-04-23T03:14:38.355Z,68.29
2018-04-23T03:17:06.067Z,68.13
2018-04-23T03:19:33.582Z,68.37
2018-04-23T03:22:01.149Z,68.29
2018-04-23T03:24:28.681Z,68.71
2018-04-23T03:26:56.190Z,68.49
2018-04-23T03:29:24.008Z,68.37
2018-04-23T03:31:52.328Z,68.15
2018-04-23T03:34:20.179Z,67.92
2018-04-23T03:36:47.717Z,67.51
2018-04-23T03:39:16.431Z,67.58
2018-04-23T03:41:44.032Z,67.98
2018-04-23T03:44:11.673Z,67.98
2018-04-23T03:46:39.302Z,67.79
2018-04-23T03:49:06.953Z,67.73
2018-04-23T03:51:35.283Z,67.55
2018-04-23T03:56:34.509Z,68.52
2018-04-23T03:59:02.031Z,68.40
2018-04-23T04:01:29.585Z,68.18
2018-04-23T04:03:57.109Z,68.13
2018-04-23T04:06:24.744Z,68.20
2018-04-23T04:08:52.295Z,68.59
2018-04-23T04:11:19.839Z,68.91
2018-04-23T04:20:42.170Z,69.79
2018-04-23T04:23:09.740Z,69.78
2018-04-23T04:25:37.338Z,69.44
2018-04-23T04:28:04.940Z,69.24
2018-04-23T04:30:32.557Z,69.16
2018-04-23T04:33:00.121Z,69.40
2018-04-23T04:35:27.718Z,69.19
2018-04-23T04:37:55.218Z,68.73
2018-04-23T04:40:22.744Z,68.56
2018-04-23T04:42:50.282Z,68.42
2018-04-23T04:45:17.782Z,68.32
2018-04-23T04:47:45.334Z,68.37
2018-04-23T04:50:13.724Z,68.22
2018-04-23T04:52:42.167Z,68.10
2018-04-23T04:55:11.505Z,68.48
2018-04-23T04:57:39.058Z,68.33
2018-04-23T05:00:06.655Z,68.39
2018-04-23T05:02:34.385Z,68.26
2018-04-23T05:05:02.045Z,67.89
2018-04-23T05:07:35.125Z,67.67
2018-04-23T05:10:02.776Z,67.38
2018-04-23T05:12:30.476Z,67.34
2018-04-23T05:14:58.152Z,67.56
2018-04-23T05:17:26.049Z,67.53
2018-04-23T05:19:53.716Z,68.10
2018-04-23T05:22:21.324Z,67.97
2018-04-23T05:24:48.971Z,68.18
2018-04-23T05:27:16.579Z,68.06
2018-04-23T05:29:44.305Z,68.11
2018-04-23T05:32:11.942Z,68.05
2018-04-23T05:34:39.508Z,67.92
2018-04-23T05:37:07.378Z,67.92
2018-04-23T05:39:36.085Z,68.03
2018-04-23T05:42:03.898Z,68.06
2018-04-23T05:44:31.594Z,68.07
2018-04-23T05:46:59.182Z,68.07
2018-04-23T05:49:26.918Z,68.03
2018-04-23T05:51:54.602Z,67.75
2018-04-23T05:54:22.261Z,67.76
2018-04-23T05:56:49.931Z,67.75
2018-04-23T05:59:17.633Z,67.23
2018-04-23T06:01:45.235Z,67.20
2018-04-23T06:06:39.820Z,67.05
2018-04-23T06:09:07.482Z,66.69
2018-04-23T06:11:35.023Z,66.46
2018-04-23T06:14:02.662Z,66.12
2018-04-23T06:16:30.377Z,66.15
2018-04-23T06:18:58.825Z,66.26
2018-04-23T06:21:26.382Z,65.75
2018-04-23T06:23:53.953Z,64.81
2018-04-23T06:26:21.485Z,61.26
2018-04-23T06:28:49.044Z,59.91
2018-04-23T06:31:16.584Z,57.23
2018-04-23T06:33:44.165Z,57.37
2018-04-23T06:36:11.678Z,55.81
2018-04-23T06:38:39.194Z,54.72
2018-04-23T06:41:06.751Z,52.35
2018-04-23T06:43:34.265Z,51.24
2018-04-23T06:46:01.794Z,51.19
2018-04-23T06:48:29.305Z,51.04
2018-04-23T06:50:56.954Z,48.90
2018-04-23T06:53:26.565Z,48.86
2018-04-23T06:55:54.144Z,48.58
2018-04-23T06:58:21.805Z,48.00
2018-04-23T07:00:49.568Z,47.98
2018-04-23T07:03:17.200Z,47.42
2018-04-23T07:05:44.870Z,47.57
2018-04-23T07:08:12.574Z,46.87
2018-04-23T07:10:40.519Z,47.08
2018-04-23T07:13:08.158Z,46.29
2018-04-23T07:15:35.741Z,46.40
2018-04-23T07:18:03.352Z,45.43
2018-04-23T07:20:31.045Z,46.04
2018-04-23T07:22:58.636Z,45.08
2018-04-23T07:25:26.166Z,45.00
2018-04-23T07:27:53.745Z,45.03
2018-04-23T07:30:21.420Z,43.24
2018-04-23T07:32:49.021Z,42.96
2018-04-23T07:35:17.307Z,43.06
2018-04-23T07:37:44.847Z,43.46
2018-04-23T07:40:12.393Z,44.57
2018-04-23T07:42:40.043Z,43.22
2018-04-23T07:45:07.643Z,43.10
2018-04-23T07:47:35.238Z,42.99
2018-04-23T07:50:02.871Z,42.62
2018-04-23T07:52:30.457Z,43.05
2018-04-23T07:54:58.123Z,42.69
2018-04-23T07:57:26.013Z,43.31
2018-04-23T07:59:53.734Z,43.38
2018-04-23T08:02:22.177Z,43.03
2018-04-23T08:04:49.895Z,41.92
2018-04-23T08:07:17.537Z,42.13
2018-04-23T08:09:45.229Z,42.50
2018-04-23T08:14:46.556Z,41.54
2018-04-23T08:17:14.072Z,41.89
2018-04-23T08:19:41.702Z,40.49
2018-04-23T08:22:09.352Z,40.87
2018-04-23T08:24:37.013Z,40.55
2018-04-23T08:27:04.640Z,40.89
2018-04-23T08:29:32.236Z,40.84
2018-04-23T08:31:59.925Z,40.99
2018-04-23T08:34:27.648Z,40.68
2018-04-23T08:36:55.331Z,41.38
2018-04-23T08:39:23.596Z,40.61
2018-04-23T08:41:51.353Z,41.24
2018-04-23T08:44:18.928Z,41.46
2018-04-23T08:46:46.508Z,41.56
2018-04-23T08:49:14.174Z,40.77
2018-04-23T08:51:41.827Z,41.53
2018-04-23T08:54:09.435Z,41.12
2018-04-23T08:56:37.028Z,40.47
2018-04-23T08:59:04.672Z,41.44
2018-04-23T09:01:32.246Z,41.15
2018-04-23T09:03:59.858Z,40.57
2018-04-23T09:06:27.642Z,40.08
2018-04-23T09:08:55.318Z,40.41
2018-04-23T09:11:22.967Z,39.49
2018-04-23T09:13:50.582Z,39.58
2018-04-23T09:16:18.212Z,38.95
2018-04-23T09:18:45.805Z,38.42
2018-04-23T09:21:14.901Z,37.99
2018-04-23T09:23:42.561Z,37.35
2018-04-23T09:26:10.138Z,37.24
2018-04-23T09:28:37.728Z,36.75
2018-04-23T09:31:05.411Z,36.34
2018-04-23T09:33:33.096Z,36.19
2018-04-23T09:36:00.740Z,36.07
2018-04-23T09:38:28.481Z,36.79
2018-04-23T09:40:56.020Z,36.68
2018-04-23T09:43:23.547Z,35.53
2018-04-23T09:45:51.060Z,36.36
2018-04-23T09:48:18.650Z,37.32
2018-04-23T09:50:46.195Z,36.43
2018-04-23T09:53:13.705Z,36.09
2018-04-23T09:55:41.242Z,37.67
2018-04-23T09:58:08.769Z,35.94
2018-04-23T10:00:36.347Z,36.33
2018-04-23T10:03:11.293Z,37.01
2018-04-23T10:05:41.831Z,36.29
2018-04-23T10:08:09.365Z,35.24
2018-04-23T10:10:37.026Z,34.52
2018-04-23T10:13:04.637Z,35.26
2018-04-23T10:15:32.347Z,35.16
2018-04-23T10:17:59.967Z,35.04
2018-04-23T10:20:27.555Z,35.48
2018-04-23T10:25:27.810Z,35.31
2018-04-23T10:27:55.414Z,34.72
2018-04-23T10:30:22.956Z,33.64
2018-04-23T10:32:50.523Z,32.84
2018-04-23T10:35:18.260Z,33.10
2018-04-23T10:37:45.924Z,33.56
2018-04-23T10:40:13.540Z,32.29
2018-04-23T10:42:41.322Z,32.73
2018-04-23T10:45:08.946Z,31.99
2018-04-23T10:47:36.626Z,32.24
2018-04-23T10:50:04.348Z,32.02
2018-04-23T10:52:32.964Z,33.13
2018-04-23T10:55:00.533Z,32.48
2018-04-23T10:57:28.164Z,31.47
2018-04-23T10:59:55.806Z,31.73
2018-04-23T11:02:23.409Z,32.72
2018-04-23T11:04:51.066Z,32.26
2018-04-23T11:07:18.680Z,31.65
2018-04-23T11:09:46.281Z,31.82
2018-04-23T11:12:13.893Z,31.43
2018-04-23T11:14:41.463Z,30.71
2018-04-23T11:17:09.170Z,30.90
2018-04-23T11:19:36.823Z,32.20
2018-04-23T11:22:04.449Z,32.00
2018-04-23T11:24:32.151Z,30.65
2018-04-23T11:26:59.739Z,29.44
2018-04-23T11:29:27.383Z,31.63
2018-04-23T11:31:55.015Z,31.80
2018-04-23T11:34:22.655Z,32.06
2018-04-23T11:36:50.157Z,32.13
2018-04-23T11:39:18.438Z,30.91
2018-04-23T11:41:46.015Z,30.27
2018-04-23T11:44:13.602Z,29.86
2018-04-23T11:46:41.505Z,31.45
2018-04-23T11:49:09.051Z,30.29
2018-04-23T11:51:36.621Z,30.98
2018-04-23T11:54:04.130Z,30.19
2018-04-23T11:56:31.643Z,30.44
2018-04-23T11:58:59.191Z,29.65
2018-04-23T12:01:26.915Z,28.09
2018-04-23T12:03:54.554Z,28.75
2018-04-23T12:06:22.099Z,28.01
2018-04-23T12:08:49.716Z,28.88
2018-04-23T12:13:50.962Z,27.11
2018-04-23T12:16:18.553Z,27.62
2018-04-23T12:18:46.142Z,27.75
2018-04-23T12:21:13.940Z,27.49
2018-04-23T12:23:41.590Z,27.81
2018-04-23T12:26:09.192Z,27.87
2018-04-23T12:28:36.775Z,27.19
2018-04-23T12:31:04.996Z,26.37
2018-04-23T12:33:32.589Z,25.92
2018-04-23T12:36:00.107Z,27.63
2018-04-23T12:38:27.817Z,27.22
2018-04-23T12:43:29.185Z,28.08
2018-04-23T12:45:56.772Z,27.05
2018-04-23T12:48:24.329Z,26.07
2018-04-23T12:50:51.927Z,25.57
2018-04-23T12:53:19.957Z,26.02
2018-04-23T12:55:47.692Z,25.28
2018-04-23T12:58:15.288Z,26.46
2018-04-23T13:00:43.037Z,26.82
2018-04-23T13:03:11.400Z,28.11
2018-04-23T13:05:54.901Z,27.48
2018-04-23T13:08:22.676Z,26.10
2018-04-23T13:10:50.319Z,27.00
2018-04-23T13:13:17.936Z,27.14
2018-04-23T13:15:45.676Z,27.51
2018-04-23T13:18:13.259Z,27.48
2018-04-23T13:20:40.897Z,27.31
2018-04-23T13:23:08.425Z,26.17
2018-04-23T13:25:36.480Z,26.15
2018-04-23T13:28:04.178Z,26.48
2018-04-23T13:30:31.780Z,25.42
2018-04-23T13:32:59.364Z,25.86
2018-04-23T13:35:26.989Z,25.93
2018-04-23T13:37:54.713Z,24.15
2018-04-23T13:40:22.292Z,23.45
2018-04-23T13:42:49.862Z,25.13
2018-04-23T13:45:19.241Z,23.31
2018-04-23T13:47:47.873Z,23.58
2018-04-23T13:50:16.615Z,22.60
2018-04-23T13:52:44.205Z,22.34
2018-04-23T13:55:12.044Z,22.67
2018-04-23T13:57:39.575Z,22.51
2018-04-23T14:00:07.105Z,22.82
2018-04-23T14:02:34.651Z,24.61
2018-04-23T14:05:02.580Z,23.27
2018-04-23T14:07:30.508Z,23.33
2018-04-23T14:09:58.119Z,24.01
2018-04-23T14:12:26.050Z,24.91
2018-04-23T14:14:53.651Z,24.91
2018-04-23T14:17:21.277Z,26.09
2018-04-23T14:19:48.977Z,23.76
2018-04-23T14:22:16.664Z,24.08
2018-04-23T14:24:44.200Z,23.60
2018-04-23T14:27:11.873Z,24.41
2018-04-23T14:29:39.561Z,24.12
2018-04-23T14:32:07.305Z,24.39
2018-04-23T14:34:34.887Z,24.44
2018-04-23T14:37:02.497Z,23.84
2018-04-23T14:39:30.151Z,24.00
2018-04-23T14:41:57.680Z,23.71
2018-04-23T14:44:25.222Z,23.79
2018-04-23T14:46:52.737Z,23.50
2018-04-23T14:49:20.959Z,24.09
2018-04-23T14:51:48.480Z,23.91
2018-04-23T14:54:16.070Z,24.20
2018-04-23T14:56:43.613Z,24.36
2018-04-23T14:59:11.204Z,24.41
2018-04-23T15:01:39.585Z,23.81
2018-04-23T15:04:07.232Z,23.55
2018-04-23T15:06:34.897Z,24.51
2018-04-23T15:09:02.636Z,24.81
2018-04-23T15:11:30.853Z,25.22
2018-04-23T15:13:58.993Z,25.58
2018-04-23T15:16:26.679Z,24.33
2018-04-23T15:18:54.479Z,25.49
2018-04-23T15:21:22.071Z,25.20
2018-04-23T15:23:49.949Z,25.16
2018-04-23T15:26:17.650Z,25.34
2018-04-23T15:28:45.330Z,25.46
2018-04-23T15:31:14.291Z,26.21
2018-04-23T15:33:41.956Z,24.93
2018-04-23T15:36:09.542Z,25.23
2018-04-23T15:38:37.120Z,24.79
2018-04-23T15:41:04.811Z,26.31
2018-04-23T15:43:32.567Z,26.67
2018-04-23T15:46:00.281Z,26.30
2018-04-23T15:48:27.989Z,26.60
2018-04-23T15:50:55.596Z,26.58
2018-04-23T15:53:23.591Z,25.45
2018-04-23T15:55:51.185Z,26.25
2018-04-23T15:58:18.837Z,25.51
2018-04-23T16:00:46.424Z,25.11
2018-04-23T16:03:14.165Z,25.71
2018-04-23T16:05:42.116Z,25.97
2018-04-23T16:08:11.320Z,26.74
2018-04-23T16:10:38.858Z,26.16
2018-04-23T16:13:06.434Z,26.83
2018-04-23T16:15:33.958Z,27.15
2018-04-23T16:18:01.818Z,27.58
2018-04-23T16:20:29.335Z,27.27
2018-04-23T16:22:56.912Z,27.22
2018-04-23T16:25:24.452Z,27.89
2018-04-23T16:27:51.993Z,26.42
2018-04-23T16:30:19.500Z,27.87
2018-04-23T16:32:47.048Z,27.35
2018-04-23T16:35:14.666Z,27.98
2018-04-23T16:37:42.405Z,28.53
2018-04-23T16:40:10.144Z,28.96
2018-04-23T16:42:37.659Z,29.36
2018-04-23T16:45:05.221Z,28.92
2018-04-23T16:47:32.803Z,29.63
2018-04-23T16:50:00.398Z,30.89
2018-04-23T16:52:28.006Z,32.04
2018-04-23T16:54:55.607Z,32.46
2018-04-23T16:57:23.214Z,33.32
2018-04-23T16:59:50.737Z,34.01
2018-04-23T17:02:18.265Z,33.97
2018-04-23T17:04:45.853Z,33.98
2018-04-23T17:07:13.573Z,34.39
2018-04-23T17:09:41.256Z,35.07
2018-04-23T17:12:08.816Z,35.27
2018-04-23T17:14:36.428Z,35.29
2018-04-23T17:17:03.959Z,35.16
2018-04-23T17:19:31.456Z,34.93
2018-04-23T17:21:59.290Z,36.60
2018-04-23T17:24:27.009Z,36.83
2018-04-23T17:26:54.570Z,37.70
2018-04-23T17:29:22.296Z,37.18
2018-04-23T17:31:49.941Z,37.66
2018-04-23T17:34:17.560Z,38.16
2018-04-23T17:36:45.177Z,38.49
2018-04-23T17:39:12.874Z,38.73
2018-04-23T17:41:40.641Z,39.17
2018-04-23T17:44:08.292Z,39.45
2018-04-23T17:46:35.997Z,39.78
2018-04-23T17:49:03.620Z,39.83
2018-04-23T17:51:31.247Z,39.60
2018-04-23T17:53:58.908Z,39.96
2018-04-23T17:56:26.564Z,39.95
2018-04-23T17:58:54.487Z,39.98
2018-04-23T18:01:22.102Z,40.07
2018-04-23T18:03:54.864Z,40.17
2018-04-23T18:06:22.518Z,40.62
2018-04-23T18:08:50.110Z,40.79
2018-04-23T18:11:18.373Z,41.40
2018-04-23T18:13:45.976Z,41.64
2018-04-23T18:16:13.562Z,42.21
2018-04-23T18:18:41.228Z,43.10
2018-04-23T18:21:08.905Z,43.62
2018-04-23T18:23:36.792Z,44.22
2018-04-23T18:26:04.556Z,44.41
2018-04-23T18:28:32.144Z,44.87
2018-04-23T18:30:59.766Z,45.15
2018-04-23T18:33:44.984Z,45.47
2018-04-23T18:36:12.635Z,45.60
2018-04-23T18:38:40.225Z,45.79
2018-04-23T18:41:07.716Z,46.22
2018-04-23T18:43:35.609Z,46.51
2018-04-23T18:46:03.310Z,46.42
2018-04-23T18:48:31.389Z,46.37
2018-04-23T18:50:59.074Z,46.32
2018-04-23T18:53:27.369Z,46.18
2018-04-23T18:55:55.283Z,46.08
2018-04-23T18:58:23.090Z,46.46
2018-04-23T19:00:50.791Z,46.66
2018-04-23T19:03:18.983Z,46.93
2018-04-23T19:05:46.803Z,46.87
2018-04-23T19:08:14.415Z,47.56
2018-04-23T19:10:42.074Z,47.62
2018-04-23T19:13:11.263Z,47.66
2018-04-23T19:15:39.072Z,47.66
2018-04-23T19:18:06.970Z,47.90
2018-04-23T19:20:34.613Z,47.96
2018-04-23T19:23:02.228Z,47.83
2018-04-23T19:25:30.251Z,48.13
2018-04-23T19:27:58.050Z,47.74
2018-04-23T19:32:59.768Z,48.00
2018-04-23T19:35:27.466Z,47.89
2018-04-23T19:37:55.063Z,48.32
2018-04-23T19:40:22.722Z,48.21
2018-04-23T19:42:50.586Z,47.93
2018-04-23T19:45:18.163Z,48.03
2018-04-23T19:47:45.794Z,48.21
2018-04-23T19:50:13.431Z,48.39
2018-04-23T19:52:40.994Z,48.55
2018-04-23T19:55:08.721Z,49.44
2018-04-23T19:57:36.278Z,49.51
2018-04-23T20:00:03.874Z,49.69
2018-04-23T20:02:31.564Z,50.01
2018-04-23T20:04:59.179Z,49.94
2018-04-23T20:07:27.714Z,50.02
2018-04-23T20:12:30.485Z,50.31
2018-04-23T20:14:58.214Z,50.87
2018-04-23T20:17:26.791Z,51.22
2018-04-23T20:19:54.456Z,51.64
2018-04-23T20:22:22.124Z,51.99
2018-04-23T20:24:49.780Z,52.25
2018-04-23T20:27:17.988Z,52.46
2018-04-23T20:29:45.674Z,53.03
2018-04-23T20:32:13.317Z,53.01
2018-04-23T20:34:41.037Z,52.58
2018-04-23T20:37:09.060Z,52.64
2018-04-23T20:39:36.849Z,53.57
2018-04-23T20:42:04.605Z,56.43
2018-04-23T20:44:32.304Z,57.49
2018-04-23T20:47:00.081Z,59.82
2018-04-23T20:49:27.829Z,60.58
2018-04-23T20:51:55.451Z,59.83
2018-04-23T20:54:23.088Z,60.17
2018-04-23T20:59:40.933Z,63.42
2018-04-23T21:02:08.557Z,63.19
2018-04-23T21:04:36.255Z,64.00
2018-04-23T21:07:03.952Z,65.05
2018-04-23T21:09:31.671Z,65.50
2018-04-23T21:11:59.336Z,66.63
2018-04-23T21:14:27.067Z,66.80
2018-04-23T21:16:54.888Z,67.65
2018-04-23T21:19:22.500Z,67.38
2018-04-23T21:21:50.025Z,63.71
2018-04-23T21:26:51.456Z,63.70
2018-04-23T21:29:19.136Z,64.64
2018-04-23T21:31:46.835Z,63.27
2018-04-23T21:34:14.361Z,62.49
2018-04-23T21:36:43.342Z,61.82
2018-04-23T21:39:12.283Z,61.50
2018-04-23T21:41:39.834Z,61.75
2018-04-23T21:44:07.366Z,60.88
2018-04-23T21:46:34.896Z,61.45
2018-04-23T21:49:02.438Z,62.53
2018-04-23T21:51:31.102Z,64.42
2018-04-23T21:53:58.681Z,65.48
2018-04-23T21:56:26.231Z,66.40
2018-04-23T21:58:53.878Z,67.32
2018-04-23T22:01:21.519Z,66.62
2018-04-23T22:03:50.158Z,66.27
2018-04-23T22:06:17.900Z,66.89
2018-04-23T22:08:45.487Z,66.23
2018-04-23T22:13:46.840Z,66.06
2018-04-23T22:16:14.468Z,65.56
2018-04-23T22:18:42.090Z,64.35
2018-04-23T22:21:11.981Z,64.94
2018-04-23T22:23:39.564Z,64.65
2018-04-23T22:26:07.130Z,64.95
2018-04-23T22:28:34.744Z,65.58
2018-04-23T22:31:02.350Z,66.20
2018-04-23T22:33:29.908Z,66.23
2018-04-23T22:35:57.476Z,66.88
2018-04-23T22:38:25.240Z,67.00
2018-04-23T22:40:54.191Z,65.92
2018-04-23T22:43:24.846Z,65.94
2018-04-23T22:46:14.041Z,65.42
2018-04-23T22:48:43.731Z,65.87
2018-04-23T22:51:15.436Z,66.42
2018-04-23T22:53:43.030Z,67.16
2018-04-23T22:56:13.151Z,67.20
2018-04-23T22:58:41.174Z,67.07
2018-04-23T23:01:08.763Z,66.79
2018-04-23T23:03:36.464Z,66.41
2018-04-23T23:06:03.985Z,66.57
2018-04-23T23:08:31.520Z,67.01
2018-04-23T23:10:59.046Z,67.37
2018-04-23T23:13:27.100Z,67.59
2018-04-23T23:15:54.686Z,67.66
2018-04-23T23:18:22.184Z,67.20
2018-04-23T23:20:49.673Z,67.42
2018-04-23T23:23:17.321Z,67.45
2018-04-23T23:25:44.812Z,67.51
2018-04-23T23:28:12.321Z,67.96
2018-04-23T23:30:39.857Z,67.92
2018-04-23T23:33:07.497Z,67.97
2018-04-23T23:35:35.063Z,68.42
2018-04-23T23:38:02.624Z,69.06
2018-04-23T23:40:30.175Z,68.99
2018-04-23T23:42:57.741Z,69.40
2018-04-23T23:45:25.336Z,69.77
2018-04-23T23:47:52.934Z,69.64
2018-04-23T23:50:20.468Z,70.13
2018-04-23T23:52:47.972Z,70.42
2018-04-23T23:55:15.907Z,70.58
2018-04-23T23:57:43.393Z,70.44
